sensor_id;sensor_type;location;lat;lon;timestamp;P1;durP1;ratioP1;P2;durP2;ratioP2
58470;SDS011;44258;51.288;12.068;2022-07-23T00:01:33;9.75;;;4.22;;
58470;SDS011;44258;51.288;12.068;2022-07-23T00:04:00;8.90;;;4.20;;
58470;SDS011;44258;51.288;12.068;2022-07-23T00:06:27;8.63;;;4.38;;
58470;SDS011;44258;51.288;12.068;2022-07-23T00:08:53;8.10;;;3.80;;
58470;SDS011;44258;51.288;12.068;2022-07-23T00:11:20;9.18;;;4.20;;
58470;SDS011;44258;51.288;12.068;2022-07-23T00:13:48;9.00;;;4.10;;
58470;SDS011;44258;51.288;12.068;2022-07-23T00:16:15;8.98;;;3.90;;
58470;SDS011;44258;51.288;12.068;2022-07-23T00:18:41;8.07;;;3.72;;
58470;SDS011;44258;51.288;12.068;2022-07-23T00:21:08;8.63;;;4.18;;
58470;SDS011;44258;51.288;12.068;2022-07-23T00:23:35;8.90;;;4.05;;
58470;SDS011;44258;51.288;12.068;2022-07-23T00:26:01;8.40;;;3.75;;
58470;SDS011;44258;51.288;12.068;2022-07-23T00:28:28;10.07;;;4.45;;
58470;SDS011;44258;51.288;12.068;2022-07-23T00:30:56;11.45;;;4.80;;
58470;SDS011;44258;51.288;12.068;2022-07-23T00:33:22;9.07;;;3.92;;
58470;SDS011;44258;51.288;12.068;2022-07-23T00:35:49;8.73;;;4.05;;
58470;SDS011;44258;51.288;12.068;2022-07-23T00:38:15;9.55;;;4.53;;
58470;SDS011;44258;51.288;12.068;2022-07-23T00:40:42;9.20;;;4.60;;
58470;SDS011;44258;51.288;12.068;2022-07-23T00:43:09;10.63;;;4.63;;
58470;SDS011;44258;51.288;12.068;2022-07-23T00:45:36;10.23;;;4.80;;
58470;SDS011;44258;51.288;12.068;2022-07-23T00:48:04;9.73;;;4.60;;
58470;SDS011;44258;51.288;12.068;2022-07-23T00:50:31;10.15;;;4.40;;
58470;SDS011;44258;51.288;12.068;2022-07-23T00:52:58;11.75;;;4.85;;
58470;SDS011;44258;51.288;12.068;2022-07-23T00:55:25;10.07;;;4.75;;
58470;SDS011;44258;51.288;12.068;2022-07-23T00:57:51;9.90;;;4.60;;
58470;SDS011;44258;51.288;12.068;2022-07-23T01:00:19;8.73;;;4.32;;
58470;SDS011;44258;51.288;12.068;2022-07-23T01:02:46;10.20;;;4.47;;
58470;SDS011;44258;51.288;12.068;2022-07-23T01:05:13;10.07;;;4.38;;
58470;SDS011;44258;51.288;12.068;2022-07-23T01:07:40;9.15;;;4.60;;
58470;SDS011;44258;51.288;12.068;2022-07-23T01:10:08;12.35;;;4.35;;
58470;SDS011;44258;51.288;12.068;2022-07-23T01:12:49;10.43;;;4.80;;
58470;SDS011;44258;51.288;12.068;2022-07-23T01:15:16;12.15;;;4.43;;
58470;SDS011;44258;51.288;12.068;2022-07-23T01:17:42;10.30;;;4.32;;
58470;SDS011;44258;51.288;12.068;2022-07-23T01:20:09;10.77;;;4.75;;
58470;SDS011;44258;51.288;12.068;2022-07-23T01:22:38;10.40;;;4.60;;
58470;SDS011;44258;51.288;12.068;2022-07-23T01:25:05;10.63;;;4.32;;
58470;SDS011;44258;51.288;12.068;2022-07-23T01:27:32;11.15;;;5.10;;
58470;SDS011;44258;51.288;12.068;2022-07-23T01:29:59;10.70;;;4.63;;
58470;SDS011;44258;51.288;12.068;2022-07-23T01:32:26;9.15;;;4.30;;
58470;SDS011;44258;51.288;12.068;2022-07-23T01:34:53;10.57;;;5.20;;
58470;SDS011;44258;51.288;12.068;2022-07-23T01:37:20;11.45;;;4.90;;
58470;SDS011;44258;51.288;12.068;2022-07-23T01:39:48;10.18;;;4.57;;
58470;SDS011;44258;51.288;12.068;2022-07-23T01:42:14;12.40;;;4.40;;
58470;SDS011;44258;51.288;12.068;2022-07-23T01:44:41;10.20;;;4.40;;
58470;SDS011;44258;51.288;12.068;2022-07-23T01:47:08;10.93;;;4.43;;
58470;SDS011;44258;51.288;12.068;2022-07-23T01:49:35;12.52;;;4.50;;
58470;SDS011;44258;51.288;12.068;2022-07-23T01:52:02;12.65;;;4.50;;
58470;SDS011;44258;51.288;12.068;2022-07-23T01:54:32;9.15;;;4.32;;
58470;SDS011;44258;51.288;12.068;2022-07-23T01:57:01;9.45;;;4.57;;
58470;SDS011;44258;51.288;12.068;2022-07-23T01:59:28;10.85;;;4.72;;
58470;SDS011;44258;51.288;12.068;2022-07-23T02:01:55;9.82;;;4.80;;
58470;SDS011;44258;51.288;12.068;2022-07-23T02:04:23;11.05;;;5.03;;
58470;SDS011;44258;51.288;12.068;2022-07-23T02:06:51;9.25;;;4.03;;
58470;SDS011;44258;51.288;12.068;2022-07-23T02:09:18;11.98;;;4.95;;
58470;SDS011;44258;51.288;12.068;2022-07-23T02:11:45;11.00;;;5.00;;
58470;SDS011;44258;51.288;12.068;2022-07-23T02:14:13;12.00;;;5.55;;
58470;SDS011;44258;51.288;12.068;2022-07-23T02:16:40;10.10;;;4.63;;
58470;SDS011;44258;51.288;12.068;2022-07-23T02:19:07;11.48;;;4.50;;
58470;SDS011;44258;51.288;12.068;2022-07-23T02:21:33;10.27;;;4.75;;
58470;SDS011;44258;51.288;12.068;2022-07-23T02:24:00;9.23;;;4.38;;
58470;SDS011;44258;51.288;12.068;2022-07-23T02:26:27;10.00;;;4.63;;
58470;SDS011;44258;51.288;12.068;2022-07-23T02:28:54;10.20;;;4.68;;
58470;SDS011;44258;51.288;12.068;2022-07-23T02:31:22;10.50;;;4.75;;
58470;SDS011;44258;51.288;12.068;2022-07-23T02:33:48;8.98;;;4.05;;
58470;SDS011;44258;51.288;12.068;2022-07-23T02:36:15;11.05;;;4.72;;
58470;SDS011;44258;51.288;12.068;2022-07-23T02:38:42;11.38;;;5.28;;
58470;SDS011;44258;51.288;12.068;2022-07-23T02:41:09;10.48;;;4.82;;
58470;SDS011;44258;51.288;12.068;2022-07-23T02:43:35;10.98;;;4.60;;
58470;SDS011;44258;51.288;12.068;2022-07-23T02:46:02;10.25;;;4.88;;
58470;SDS011;44258;51.288;12.068;2022-07-23T02:48:30;9.90;;;4.55;;
58470;SDS011;44258;51.288;12.068;2022-07-23T02:50:57;10.80;;;4.85;;
58470;SDS011;44258;51.288;12.068;2022-07-23T02:53:23;10.93;;;4.95;;
58470;SDS011;44258;51.288;12.068;2022-07-23T02:55:50;11.40;;;4.97;;
58470;SDS011;44258;51.288;12.068;2022-07-23T02:58:17;9.65;;;4.55;;
58470;SDS011;44258;51.288;12.068;2022-07-23T03:00:44;9.85;;;4.38;;
58470;SDS011;44258;51.288;12.068;2022-07-23T03:03:10;12.07;;;4.95;;
58470;SDS011;44258;51.288;12.068;2022-07-23T03:05:38;10.27;;;4.60;;
58470;SDS011;44258;51.288;12.068;2022-07-23T03:08:05;9.82;;;4.88;;
58470;SDS011;44258;51.288;12.068;2022-07-23T03:10:32;9.63;;;4.63;;
58470;SDS011;44258;51.288;12.068;2022-07-23T03:12:58;13.35;;;5.53;;
58470;SDS011;44258;51.288;12.068;2022-07-23T03:15:25;12.13;;;5.03;;
58470;SDS011;44258;51.288;12.068;2022-07-23T03:17:52;8.45;;;4.18;;
58470;SDS011;44258;51.288;12.068;2022-07-23T03:20:18;12.80;;;4.85;;
58470;SDS011;44258;51.288;12.068;2022-07-23T03:22:46;11.27;;;4.75;;
58470;SDS011;44258;51.288;12.068;2022-07-23T03:25:13;7.88;;;3.92;;
58470;SDS011;44258;51.288;12.068;2022-07-23T03:27:40;9.48;;;4.65;;
58470;SDS011;44258;51.288;12.068;2022-07-23T03:30:07;11.95;;;4.93;;
58470;SDS011;44258;51.288;12.068;2022-07-23T03:32:34;11.70;;;4.28;;
58470;SDS011;44258;51.288;12.068;2022-07-23T03:35:00;10.20;;;4.55;;
58470;SDS011;44258;51.288;12.068;2022-07-23T03:37:27;10.30;;;5.00;;
58470;SDS011;44258;51.288;12.068;2022-07-23T03:39:55;9.70;;;4.75;;
58470;SDS011;44258;51.288;12.068;2022-07-23T03:42:22;10.15;;;4.78;;
58470;SDS011;44258;51.288;12.068;2022-07-23T03:44:48;9.52;;;4.20;;
58470;SDS011;44258;51.288;12.068;2022-07-23T03:47:15;11.25;;;4.85;;
58470;SDS011;44258;51.288;12.068;2022-07-23T03:49:42;10.00;;;4.53;;
58470;SDS011;44258;51.288;12.068;2022-07-23T03:52:09;10.40;;;4.40;;
58470;SDS011;44258;51.288;12.068;2022-07-23T03:54:35;11.73;;;4.25;;
58470;SDS011;44258;51.288;12.068;2022-07-23T03:57:03;8.88;;;4.35;;
58470;SDS011;44258;51.288;12.068;2022-07-23T03:59:30;8.80;;;4.00;;
58470;SDS011;44258;51.288;12.068;2022-07-23T04:01:57;11.20;;;4.85;;
58470;SDS011;44258;51.288;12.068;2022-07-23T04:04:23;10.73;;;4.80;;
58470;SDS011;44258;51.288;12.068;2022-07-23T04:06:50;12.75;;;5.43;;
58470;SDS011;44258;51.288;12.068;2022-07-23T04:09:16;11.55;;;4.80;;
58470;SDS011;44258;51.288;12.068;2022-07-23T04:11:43;13.50;;;6.82;;
58470;SDS011;44258;51.288;12.068;2022-07-23T04:14:11;12.32;;;5.72;;
58470;SDS011;44258;51.288;12.068;2022-07-23T04:16:38;12.52;;;6.28;;
58470;SDS011;44258;51.288;12.068;2022-07-23T04:19:04;12.60;;;6.07;;
58470;SDS011;44258;51.288;12.068;2022-07-23T04:21:31;13.40;;;6.20;;
58470;SDS011;44258;51.288;12.068;2022-07-23T04:23:58;11.70;;;5.88;;
58470;SDS011;44258;51.288;12.068;2022-07-23T04:26:24;13.10;;;6.57;;
58470;SDS011;44258;51.288;12.068;2022-07-23T04:28:51;14.48;;;5.93;;
58470;SDS011;44258;51.288;12.068;2022-07-23T04:31:19;13.15;;;5.65;;
58470;SDS011;44258;51.288;12.068;2022-07-23T04:33:45;12.82;;;6.07;;
58470;SDS011;44258;51.288;12.068;2022-07-23T04:36:12;14.52;;;6.18;;
58470;SDS011;44258;51.288;12.068;2022-07-23T04:38:39;11.93;;;5.75;;
58470;SDS011;44258;51.288;12.068;2022-07-23T04:41:05;13.88;;;5.90;;
58470;SDS011;44258;51.288;12.068;2022-07-23T04:43:32;11.93;;;5.25;;
58470;SDS011;44258;51.288;12.068;2022-07-23T04:45:59;12.48;;;5.18;;
58470;SDS011;44258;51.288;12.068;2022-07-23T04:48:27;13.23;;;6.10;;
58470;SDS011;44258;51.288;12.068;2022-07-23T04:50:53;14.00;;;5.57;;
58470;SDS011;44258;51.288;12.068;2022-07-23T04:53:20;12.02;;;5.40;;
58470;SDS011;44258;51.288;12.068;2022-07-23T04:55:47;11.85;;;5.65;;
58470;SDS011;44258;51.288;12.068;2022-07-23T04:58:13;15.32;;;6.47;;
58470;SDS011;44258;51.288;12.068;2022-07-23T05:00:40;14.38;;;5.45;;
58470;SDS011;44258;51.288;12.068;2022-07-23T05:03:07;13.23;;;5.68;;
58470;SDS011;44258;51.288;12.068;2022-07-23T05:05:35;10.73;;;4.88;;
58470;SDS011;44258;51.288;12.068;2022-07-23T05:08:02;10.82;;;5.30;;
58470;SDS011;44258;51.288;12.068;2022-07-23T05:10:29;12.70;;;5.75;;
58470;SDS011;44258;51.288;12.068;2022-07-23T05:12:56;12.18;;;5.88;;
58470;SDS011;44258;51.288;12.068;2022-07-23T05:15:23;10.95;;;5.80;;
58470;SDS011;44258;51.288;12.068;2022-07-23T05:17:50;12.50;;;5.47;;
58470;SDS011;44258;51.288;12.068;2022-07-23T05:20:16;13.45;;;5.65;;
58470;SDS011;44258;51.288;12.068;2022-07-23T05:22:44;13.95;;;5.50;;
58470;SDS011;44258;51.288;12.068;2022-07-23T05:25:11;12.40;;;5.78;;
58470;SDS011;44258;51.288;12.068;2022-07-23T05:27:38;11.50;;;5.50;;
58470;SDS011;44258;51.288;12.068;2022-07-23T05:30:05;12.68;;;5.82;;
58470;SDS011;44258;51.288;12.068;2022-07-23T05:32:32;13.93;;;6.32;;
58470;SDS011;44258;51.288;12.068;2022-07-23T05:34:59;13.85;;;6.35;;
58470;SDS011;44258;51.288;12.068;2022-07-23T05:37:25;11.93;;;5.88;;
58470;SDS011;44258;51.288;12.068;2022-07-23T05:39:53;11.40;;;5.85;;
58470;SDS011;44258;51.288;12.068;2022-07-23T05:42:20;11.82;;;5.60;;
58470;SDS011;44258;51.288;12.068;2022-07-23T05:44:47;11.55;;;5.57;;
58470;SDS011;44258;51.288;12.068;2022-07-23T05:47:14;12.60;;;5.63;;
58470;SDS011;44258;51.288;12.068;2022-07-23T05:49:40;12.80;;;5.57;;
58470;SDS011;44258;51.288;12.068;2022-07-23T05:52:07;11.23;;;5.40;;
58470;SDS011;44258;51.288;12.068;2022-07-23T05:54:34;15.85;;;5.80;;
58470;SDS011;44258;51.288;12.068;2022-07-23T05:57:02;15.18;;;5.97;;
58470;SDS011;44258;51.288;12.068;2022-07-23T05:59:30;13.35;;;6.07;;
58470;SDS011;44258;51.288;12.068;2022-07-23T06:01:57;14.45;;;6.10;;
58470;SDS011;44258;51.288;12.068;2022-07-23T06:04:24;13.80;;;5.82;;
58470;SDS011;44258;51.288;12.068;2022-07-23T06:06:50;15.65;;;6.30;;
58470;SDS011;44258;51.288;12.068;2022-07-23T06:09:17;12.05;;;5.60;;
58470;SDS011;44258;51.288;12.068;2022-07-23T06:11:44;10.65;;;5.28;;
58470;SDS011;44258;51.288;12.068;2022-07-23T06:14:11;12.60;;;6.00;;
58470;SDS011;44258;51.288;12.068;2022-07-23T06:16:38;13.68;;;5.82;;
58470;SDS011;44258;51.288;12.068;2022-07-23T06:19:04;13.57;;;6.05;;
58470;SDS011;44258;51.288;12.068;2022-07-23T06:21:31;15.07;;;6.10;;
58470;SDS011;44258;51.288;12.068;2022-07-23T06:23:58;10.38;;;5.68;;
58470;SDS011;44258;51.288;12.068;2022-07-23T06:26:24;13.85;;;5.30;;
58470;SDS011;44258;51.288;12.068;2022-07-23T06:28:51;12.55;;;5.55;;
58470;SDS011;44258;51.288;12.068;2022-07-23T06:31:19;10.73;;;5.10;;
58470;SDS011;44258;51.288;12.068;2022-07-23T06:33:46;13.77;;;5.80;;
58470;SDS011;44258;51.288;12.068;2022-07-23T06:36:13;10.82;;;5.18;;
58470;SDS011;44258;51.288;12.068;2022-07-23T06:38:40;11.70;;;5.55;;
58470;SDS011;44258;51.288;12.068;2022-07-23T06:41:06;11.45;;;5.45;;
58470;SDS011;44258;51.288;12.068;2022-07-23T06:43:33;11.80;;;5.15;;
58470;SDS011;44258;51.288;12.068;2022-07-23T06:46:00;12.13;;;5.68;;
58470;SDS011;44258;51.288;12.068;2022-07-23T06:48:28;12.98;;;5.55;;
58470;SDS011;44258;51.288;12.068;2022-07-23T06:50:55;13.80;;;5.88;;
58470;SDS011;44258;51.288;12.068;2022-07-23T06:53:21;11.65;;;5.82;;
58470;SDS011;44258;51.288;12.068;2022-07-23T06:55:49;11.48;;;5.22;;
58470;SDS011;44258;51.288;12.068;2022-07-23T06:58:15;16.05;;;5.68;;
58470;SDS011;44258;51.288;12.068;2022-07-23T07:00:44;12.63;;;5.57;;
58470;SDS011;44258;51.288;12.068;2022-07-23T07:03:11;11.60;;;5.50;;
58470;SDS011;44258;51.288;12.068;2022-07-23T07:05:39;13.40;;;5.78;;
58470;SDS011;44258;51.288;12.068;2022-07-23T07:08:05;14.38;;;5.60;;
58470;SDS011;44258;51.288;12.068;2022-07-23T07:10:32;12.10;;;5.65;;
58470;SDS011;44258;51.288;12.068;2022-07-23T07:12:59;12.63;;;5.57;;
58470;SDS011;44258;51.288;12.068;2022-07-23T07:15:26;12.05;;;5.75;;
58470;SDS011;44258;51.288;12.068;2022-07-23T07:17:52;12.73;;;5.55;;
58470;SDS011;44258;51.288;12.068;2022-07-23T07:20:19;11.23;;;5.28;;
58470;SDS011;44258;51.288;12.068;2022-07-23T07:22:47;12.10;;;5.53;;
58470;SDS011;44258;51.288;12.068;2022-07-23T07:25:13;13.52;;;6.25;;
58470;SDS011;44258;51.288;12.068;2022-07-23T07:27:40;13.20;;;6.10;;
58470;SDS011;44258;51.288;12.068;2022-07-23T07:30:10;13.02;;;5.90;;
58470;SDS011;44258;51.288;12.068;2022-07-23T07:32:37;15.38;;;5.97;;
58470;SDS011;44258;51.288;12.068;2022-07-23T07:35:04;14.93;;;6.47;;
58470;SDS011;44258;51.288;12.068;2022-07-23T07:37:32;11.30;;;5.60;;
58470;SDS011;44258;51.288;12.068;2022-07-23T07:40:00;12.35;;;5.82;;
58470;SDS011;44258;51.288;12.068;2022-07-23T07:42:27;12.40;;;5.90;;
58470;SDS011;44258;51.288;12.068;2022-07-23T07:44:53;11.50;;;5.63;;
58470;SDS011;44258;51.288;12.068;2022-07-23T07:47:20;13.52;;;6.13;;
58470;SDS011;44258;51.288;12.068;2022-07-23T07:49:47;16.27;;;7.45;;
58470;SDS011;44258;51.288;12.068;2022-07-23T07:52:13;13.18;;;6.75;;
58470;SDS011;44258;51.288;12.068;2022-07-23T07:54:40;13.88;;;6.53;;
58470;SDS011;44258;51.288;12.068;2022-07-23T07:57:09;13.18;;;6.00;;
58470;SDS011;44258;51.288;12.068;2022-07-23T07:59:36;15.02;;;6.25;;
58470;SDS011;44258;51.288;12.068;2022-07-23T08:02:02;13.10;;;6.22;;
58470;SDS011;44258;51.288;12.068;2022-07-23T08:04:29;15.68;;;6.68;;
58470;SDS011;44258;51.288;12.068;2022-07-23T08:06:55;16.58;;;6.28;;
58470;SDS011;44258;51.288;12.068;2022-07-23T08:09:22;13.45;;;5.75;;
58470;SDS011;44258;51.288;12.068;2022-07-23T08:11:49;12.10;;;5.60;;
58470;SDS011;44258;51.288;12.068;2022-07-23T08:14:18;12.60;;;5.53;;
58470;SDS011;44258;51.288;12.068;2022-07-23T08:16:45;11.15;;;5.30;;
58470;SDS011;44258;51.288;12.068;2022-07-23T08:19:11;12.02;;;5.70;;
58470;SDS011;44258;51.288;12.068;2022-07-23T08:21:38;11.45;;;5.60;;
58470;SDS011;44258;51.288;12.068;2022-07-23T08:24:05;13.70;;;5.63;;
58470;SDS011;44258;51.288;12.068;2022-07-23T08:26:31;10.90;;;4.93;;
58470;SDS011;44258;51.288;12.068;2022-07-23T08:28:58;11.00;;;4.80;;
58470;SDS011;44258;51.288;12.068;2022-07-23T08:31:26;12.25;;;5.10;;
58470;SDS011;44258;51.288;12.068;2022-07-23T08:33:52;13.90;;;5.28;;
58470;SDS011;44258;51.288;12.068;2022-07-23T08:36:20;13.93;;;5.82;;
58470;SDS011;44258;51.288;12.068;2022-07-23T08:38:47;12.18;;;5.80;;
58470;SDS011;44258;51.288;12.068;2022-07-23T08:41:13;12.43;;;5.55;;
58470;SDS011;44258;51.288;12.068;2022-07-23T08:43:41;13.85;;;5.47;;
58470;SDS011;44258;51.288;12.068;2022-07-23T08:46:08;10.93;;;5.50;;
58470;SDS011;44258;51.288;12.068;2022-07-23T08:48:36;11.50;;;5.45;;
58470;SDS011;44258;51.288;12.068;2022-07-23T08:51:04;13.30;;;5.47;;
58470;SDS011;44258;51.288;12.068;2022-07-23T08:53:32;10.80;;;5.68;;
58470;SDS011;44258;51.288;12.068;2022-07-23T08:56:01;11.70;;;5.57;;
58470;SDS011;44258;51.288;12.068;2022-07-23T08:58:29;15.27;;;7.13;;
58470;SDS011;44258;51.288;12.068;2022-07-23T09:00:56;17.08;;;8.05;;
58470;SDS011;44258;51.288;12.068;2022-07-23T09:03:24;18.02;;;9.23;;
58470;SDS011;44258;51.288;12.068;2022-07-23T09:05:55;17.65;;;8.68;;
58470;SDS011;44258;51.288;12.068;2022-07-23T09:08:24;17.83;;;9.07;;
58470;SDS011;44258;51.288;12.068;2022-07-23T09:10:53;16.10;;;8.55;;
58470;SDS011;44258;51.288;12.068;2022-07-23T09:13:25;19.45;;;8.95;;
58470;SDS011;44258;51.288;12.068;2022-07-23T09:15:56;18.30;;;9.15;;
58470;SDS011;44258;51.288;12.068;2022-07-23T09:18:28;21.10;;;9.43;;
58470;SDS011;44258;51.288;12.068;2022-07-23T09:21:12;19.15;;;10.32;;
58470;SDS011;44258;51.288;12.068;2022-07-23T09:23:41;20.92;;;9.88;;
58470;SDS011;44258;51.288;12.068;2022-07-23T09:26:20;19.33;;;9.57;;
58470;SDS011;44258;51.288;12.068;2022-07-23T09:31:25;19.98;;;11.07;;
58470;SDS011;44258;51.288;12.068;2022-07-23T09:34:06;25.00;;;12.75;;
58470;SDS011;44258;51.288;12.068;2022-07-23T09:36:38;23.27;;;11.40;;
58470;SDS011;44258;51.288;12.068;2022-07-23T09:39:05;23.38;;;13.00;;
58470;SDS011;44258;51.288;12.068;2022-07-23T09:41:37;23.50;;;12.35;;
58470;SDS011;44258;51.288;12.068;2022-07-23T09:44:09;23.45;;;11.93;;
58470;SDS011;44258;51.288;12.068;2022-07-23T09:46:37;23.70;;;11.90;;
58470;SDS011;44258;51.288;12.068;2022-07-23T09:49:16;22.67;;;11.23;;
58470;SDS011;44258;51.288;12.068;2022-07-23T09:51:46;26.20;;;12.30;;
58470;SDS011;44258;51.288;12.068;2022-07-23T09:54:25;24.17;;;11.38;;
58470;SDS011;44258;51.288;12.068;2022-07-23T09:56:56;22.27;;;10.95;;
58470;SDS011;44258;51.288;12.068;2022-07-23T09:59:25;24.70;;;12.90;;
58470;SDS011;44258;51.288;12.068;2022-07-23T10:01:53;22.30;;;11.57;;
58470;SDS011;44258;51.288;12.068;2022-07-23T10:04:21;21.40;;;10.65;;
58470;SDS011;44258;51.288;12.068;2022-07-23T10:06:51;20.92;;;9.88;;
58470;SDS011;44258;51.288;12.068;2022-07-23T10:09:21;20.85;;;10.18;;
58470;SDS011;44258;51.288;12.068;2022-07-23T10:11:50;21.35;;;10.60;;
58470;SDS011;44258;51.288;12.068;2022-07-23T10:14:20;21.75;;;10.25;;
58470;SDS011;44258;51.288;12.068;2022-07-23T10:16:47;21.88;;;10.88;;
58470;SDS011;44258;51.288;12.068;2022-07-23T10:19:14;22.13;;;10.57;;
58470;SDS011;44258;51.288;12.068;2022-07-23T10:21:42;17.67;;;8.93;;
58470;SDS011;44258;51.288;12.068;2022-07-23T10:24:18;24.55;;;10.40;;
58470;SDS011;44258;51.288;12.068;2022-07-23T10:27:05;18.50;;;9.48;;
58470;SDS011;44258;51.288;12.068;2022-07-23T10:29:46;19.85;;;9.85;;
58470;SDS011;44258;51.288;12.068;2022-07-23T10:32:21;18.58;;;9.32;;
58470;SDS011;44258;51.288;12.068;2022-07-23T10:35:03;21.88;;;11.00;;
58470;SDS011;44258;51.288;12.068;2022-07-23T10:37:42;20.52;;;10.13;;
58470;SDS011;44258;51.288;12.068;2022-07-23T10:40:15;21.27;;;9.77;;
58470;SDS011;44258;51.288;12.068;2022-07-23T10:42:43;21.23;;;10.38;;
58470;SDS011;44258;51.288;12.068;2022-07-23T10:45:27;21.83;;;10.90;;
58470;SDS011;44258;51.288;12.068;2022-07-23T10:47:56;21.05;;;10.18;;
58470;SDS011;44258;51.288;12.068;2022-07-23T10:50:38;20.20;;;10.45;;
58470;SDS011;44258;51.288;12.068;2022-07-23T10:53:09;23.38;;;11.15;;
58470;SDS011;44258;51.288;12.068;2022-07-23T10:55:46;24.00;;;10.85;;
58470;SDS011;44258;51.288;12.068;2022-07-23T10:58:18;19.75;;;9.90;;
58470;SDS011;44258;51.288;12.068;2022-07-23T11:00:46;21.45;;;10.20;;
58470;SDS011;44258;51.288;12.068;2022-07-23T11:03:33;20.33;;;9.75;;
58470;SDS011;44258;51.288;12.068;2022-07-23T11:06:03;18.38;;;9.05;;
58470;SDS011;44258;51.288;12.068;2022-07-23T11:08:31;18.13;;;8.27;;
58470;SDS011;44258;51.288;12.068;2022-07-23T11:11:09;17.50;;;8.85;;
58470;SDS011;44258;51.288;12.068;2022-07-23T11:13:38;17.00;;;8.32;;
58470;SDS011;44258;51.288;12.068;2022-07-23T11:16:07;15.32;;;7.03;;
58470;SDS011;44258;51.288;12.068;2022-07-23T11:19:05;17.30;;;8.13;;
58470;SDS011;44258;51.288;12.068;2022-07-23T11:21:43;15.60;;;7.90;;
58470;SDS011;44258;51.288;12.068;2022-07-23T11:24:11;15.50;;;7.50;;
58470;SDS011;44258;51.288;12.068;2022-07-23T11:26:45;16.05;;;7.80;;
58470;SDS011;44258;51.288;12.068;2022-07-23T11:32:33;16.10;;;7.05;;
58470;SDS011;44258;51.288;12.068;2022-07-23T11:35:18;16.02;;;7.28;;
58470;SDS011;44258;51.288;12.068;2022-07-23T11:37:46;14.25;;;7.25;;
58470;SDS011;44258;51.288;12.068;2022-07-23T11:40:14;15.32;;;8.00;;
58470;SDS011;44258;51.288;12.068;2022-07-23T11:42:54;16.27;;;7.50;;
58470;SDS011;44258;51.288;12.068;2022-07-23T11:45:23;15.98;;;8.07;;
58470;SDS011;44258;51.288;12.068;2022-07-23T11:47:52;17.17;;;8.35;;
58470;SDS011;44258;51.288;12.068;2022-07-23T11:50:22;17.67;;;8.75;;
58470;SDS011;44258;51.288;12.068;2022-07-23T11:52:49;20.00;;;10.23;;
58470;SDS011;44258;51.288;12.068;2022-07-23T11:55:16;17.27;;;8.25;;
58470;SDS011;44258;51.288;12.068;2022-07-23T11:57:44;17.83;;;8.77;;
58470;SDS011;44258;51.288;12.068;2022-07-23T12:00:13;20.02;;;9.73;;
58470;SDS011;44258;51.288;12.068;2022-07-23T12:02:42;17.85;;;9.07;;
58470;SDS011;44258;51.288;12.068;2022-07-23T12:05:11;17.08;;;8.60;;
58470;SDS011;44258;51.288;12.068;2022-07-23T12:07:39;15.40;;;8.07;;
58470;SDS011;44258;51.288;12.068;2022-07-23T12:10:12;15.85;;;8.07;;
58470;SDS011;44258;51.288;12.068;2022-07-23T12:12:41;17.65;;;8.57;;
58470;SDS011;44258;51.288;12.068;2022-07-23T12:15:10;17.90;;;8.75;;
58470;SDS011;44258;51.288;12.068;2022-07-23T12:17:40;16.27;;;8.70;;
58470;SDS011;44258;51.288;12.068;2022-07-23T12:20:11;17.00;;;8.73;;
58470;SDS011;44258;51.288;12.068;2022-07-23T12:22:41;16.77;;;8.63;;
58470;SDS011;44258;51.288;12.068;2022-07-23T12:25:10;16.92;;;7.70;;
58470;SDS011;44258;51.288;12.068;2022-07-23T12:27:38;15.27;;;8.32;;
58470;SDS011;44258;51.288;12.068;2022-07-23T12:30:16;16.13;;;8.02;;
58470;SDS011;44258;51.288;12.068;2022-07-23T12:32:44;17.17;;;7.22;;
58470;SDS011;44258;51.288;12.068;2022-07-23T12:35:12;15.13;;;7.72;;
58470;SDS011;44258;51.288;12.068;2022-07-23T12:37:40;14.60;;;6.88;;
58470;SDS011;44258;51.288;12.068;2022-07-23T12:40:19;13.18;;;6.85;;
58470;SDS011;44258;51.288;12.068;2022-07-23T12:42:47;13.95;;;6.68;;
58470;SDS011;44258;51.288;12.068;2022-07-23T12:45:17;14.43;;;6.50;;
58470;SDS011;44258;51.288;12.068;2022-07-23T12:47:50;14.77;;;7.22;;
58470;SDS011;44258;51.288;12.068;2022-07-23T12:50:34;14.65;;;6.32;;
58470;SDS011;44258;51.288;12.068;2022-07-23T12:53:07;15.38;;;7.80;;
58470;SDS011;44258;51.288;12.068;2022-07-23T12:55:36;16.85;;;8.25;;
58470;SDS011;44258;51.288;12.068;2022-07-23T12:58:06;18.05;;;8.35;;
58470;SDS011;44258;51.288;12.068;2022-07-23T13:00:54;14.45;;;7.57;;
58470;SDS011;44258;51.288;12.068;2022-07-23T13:03:35;12.73;;;6.07;;
58470;SDS011;44258;51.288;12.068;2022-07-23T13:06:04;15.20;;;7.25;;
58470;SDS011;44258;51.288;12.068;2022-07-23T13:08:33;14.35;;;6.80;;
58470;SDS011;44258;51.288;12.068;2022-07-23T13:11:01;12.60;;;6.13;;
58470;SDS011;44258;51.288;12.068;2022-07-23T13:13:30;12.13;;;6.10;;
58470;SDS011;44258;51.288;12.068;2022-07-23T13:15:59;11.82;;;5.63;;
58470;SDS011;44258;51.288;12.068;2022-07-23T13:18:27;11.55;;;5.70;;
58470;SDS011;44258;51.288;12.068;2022-07-23T13:20:54;13.23;;;6.22;;
58470;SDS011;44258;51.288;12.068;2022-07-23T13:23:21;12.63;;;7.35;;
58470;SDS011;44258;51.288;12.068;2022-07-23T13:25:48;15.20;;;7.22;;
58470;SDS011;44258;51.288;12.068;2022-07-23T13:28:16;12.75;;;7.05;;
58470;SDS011;44258;51.288;12.068;2022-07-23T13:30:44;15.15;;;6.72;;
58470;SDS011;44258;51.288;12.068;2022-07-23T13:33:14;12.13;;;5.65;;
58470;SDS011;44258;51.288;12.068;2022-07-23T13:35:40;11.32;;;4.78;;
58470;SDS011;44258;51.288;12.068;2022-07-23T13:38:07;10.55;;;5.22;;
58470;SDS011;44258;51.288;12.068;2022-07-23T13:40:34;11.77;;;5.63;;
58470;SDS011;44258;51.288;12.068;2022-07-23T13:43:04;10.05;;;5.13;;
58470;SDS011;44258;51.288;12.068;2022-07-23T13:45:30;9.38;;;4.60;;
58470;SDS011;44258;51.288;12.068;2022-07-23T13:47:57;9.25;;;4.57;;
58470;SDS011;44258;51.288;12.068;2022-07-23T13:50:25;11.75;;;5.30;;
58470;SDS011;44258;51.288;12.068;2022-07-23T13:52:51;10.48;;;4.60;;
58470;SDS011;44258;51.288;12.068;2022-07-23T13:55:18;12.25;;;5.20;;
58470;SDS011;44258;51.288;12.068;2022-07-23T13:57:45;9.02;;;4.30;;
58470;SDS011;44258;51.288;12.068;2022-07-23T14:00:12;10.45;;;5.15;;
58470;SDS011;44258;51.288;12.068;2022-07-23T14:02:39;11.25;;;5.57;;
58470;SDS011;44258;51.288;12.068;2022-07-23T14:05:07;10.75;;;4.35;;
58470;SDS011;44258;51.288;12.068;2022-07-23T14:07:37;9.15;;;4.90;;
58470;SDS011;44258;51.288;12.068;2022-07-23T14:10:05;10.05;;;4.28;;
58470;SDS011;44258;51.288;12.068;2022-07-23T14:12:33;9.15;;;4.63;;
58470;SDS011;44258;51.288;12.068;2022-07-23T14:15:00;9.20;;;4.70;;
58470;SDS011;44258;51.288;12.068;2022-07-23T14:17:27;8.27;;;4.05;;
58470;SDS011;44258;51.288;12.068;2022-07-23T14:19:54;9.82;;;4.70;;
58470;SDS011;44258;51.288;12.068;2022-07-23T14:22:20;10.23;;;4.80;;
58470;SDS011;44258;51.288;12.068;2022-07-23T14:24:49;10.75;;;5.05;;
58470;SDS011;44258;51.288;12.068;2022-07-23T14:27:15;10.50;;;4.90;;
58470;SDS011;44258;51.288;12.068;2022-07-23T14:29:42;11.32;;;4.60;;
58470;SDS011;44258;51.288;12.068;2022-07-23T14:32:09;9.77;;;5.32;;
58470;SDS011;44258;51.288;12.068;2022-07-23T14:34:35;10.52;;;4.57;;